createdAt,value
2023-04-19T00:00:46.690Z,12.0977
2023-04-19T00:01:54.876Z,12.2216
2023-04-19T00:03:02.859Z,11.8972
2023-04-19T00:04:11.053Z,11.9886
2023-04-19T00:05:19.116Z,11.9203
2023-04-19T00:06:27.071Z,11.7513
2023-04-19T00:07:35.123Z,12.2338
2023-04-19T00:08:43.304Z,11.8984
2023-04-19T00:09:51.175Z,12.4536
2023-04-19T00:10:59.332Z,12.3167
2023-04-19T00:12:07.296Z,12.0620
2023-04-19T00:13:15.258Z,12.1046
2023-04-19T00:14:23.437Z,12.6179
2023-04-19T00:15:31.510Z,12.1632
2023-04-19T00:16:39.585Z,13.2350
2023-04-19T00:17:47.686Z,12.6010
2023-04-19T00:18:55.757Z,12.4915
2023-04-19T00:20:03.850Z,11.9762
2023-04-19T00:21:11.840Z,13.1831
2023-04-19T00:22:20.027Z,13.8843
2023-04-19T00:23:27.902Z,13.3673
2023-04-19T00:24:36.017Z,13.4870
2023-04-19T00:25:44.142Z,13.5133
2023-04-19T00:26:52.136Z,13.3331
2023-04-19T00:28:00.184Z,13.2644
2023-04-19T00:29:08.262Z,12.8170
2023-04-19T00:30:16.397Z,13.2611
2023-04-19T00:31:24.665Z,14.2564
2023-04-19T00:32:32.543Z,13.1762
2023-04-19T00:33:40.564Z,13.0555
2023-04-19T00:34:48.582Z,13.0297
2023-04-19T00:35:56.685Z,13.4881
2023-04-19T00:37:04.750Z,14.0107
2023-04-19T00:38:12.764Z,13.9171
2023-04-19T00:39:20.924Z,13.5285
2023-04-19T00:40:28.861Z,13.5136
2023-04-19T00:41:36.946Z,13.4128
2023-04-19T00:42:45.055Z,13.2798
2023-04-19T00:43:53.106Z,14.3102
2023-04-19T00:45:01.207Z,14.1176
2023-04-19T00:46:09.256Z,14.4931
2023-04-19T00:47:17.280Z,14.9780
2023-04-19T00:48:25.462Z,14.1701
2023-04-19T00:49:33.269Z,14.6667
2023-04-19T00:50:41.450Z,14.4859
2023-04-19T00:51:49.550Z,14.2922
2023-04-19T00:52:57.583Z,15.3231
2023-04-19T00:54:05.732Z,15.5424
2023-04-19T00:55:13.840Z,15.0459
2023-04-19T00:56:21.842Z,15.2649
2023-04-19T00:57:29.811Z,15.2807
2023-04-19T00:58:37.893Z,14.6305
2023-04-19T00:59:46.015Z,14.3337
2023-04-19T01:00:53.874Z,13.7723
2023-04-19T01:02:02.164Z,13.8843
2023-04-19T01:03:10.312Z,14.1049
2023-04-19T01:04:18.534Z,14.3667
2023-04-19T01:05:26.428Z,14.8226
2023-04-19T01:06:34.435Z,14.3604
2023-04-19T01:07:42.356Z,14.9455
2023-04-19T01:08:50.317Z,14.1932
2023-04-19T01:09:58.540Z,15.1291
2023-04-19T01:11:06.594Z,14.5258
2023-04-19T01:12:14.689Z,15.0024
2023-04-19T01:13:22.571Z,14.7317
2023-04-19T01:14:30.635Z,14.7014
2023-04-19T01:15:38.868Z,13.5536
2023-04-19T01:16:46.947Z,14.2338
2023-04-19T01:17:55.078Z,14.8954
2023-04-19T01:19:02.882Z,14.6721
2023-04-19T01:20:11.326Z,14.2490
2023-04-19T01:21:19.042Z,15.1701
2023-04-19T01:22:27.298Z,14.5794
2023-04-19T01:23:35.284Z,13.0022
2023-04-19T01:24:43.192Z,13.7269
2023-04-19T01:25:51.359Z,13.7969
2023-04-19T01:26:59.447Z,14.9996
2023-04-19T01:28:07.607Z,14.2314
2023-04-19T01:29:15.785Z,14.2404
2023-04-19T01:30:23.608Z,14.2688
2023-04-19T01:31:31.703Z,14.2102
2023-04-19T01:32:39.805Z,14.2619
2023-04-19T01:33:47.840Z,14.4591
2023-04-19T01:34:56.004Z,14.4450
2023-04-19T01:36:03.826Z,14.0909
2023-04-19T01:37:12.192Z,13.9674
2023-04-19T01:38:20.064Z,14.0154
2023-04-19T01:39:28.157Z,14.4342
2023-04-19T01:40:36.508Z,14.3629
2023-04-19T01:41:44.136Z,13.8950
2023-04-19T01:42:52.312Z,14.0280
2023-04-19T01:44:00.389Z,13.1112
2023-04-19T01:45:08.617Z,13.7871
2023-04-19T01:46:16.517Z,13.4777
2023-04-19T01:47:24.543Z,14.2870
2023-04-19T01:48:32.593Z,14.1849
2023-04-19T01:49:40.681Z,13.9021
2023-04-19T01:50:48.796Z,13.7189
2023-04-19T01:51:56.686Z,13.8925
2023-04-19T01:53:04.917Z,14.1653
2023-04-19T01:54:13.227Z,14.6662
2023-04-19T01:55:20.952Z,13.5392
2023-04-19T01:56:29.262Z,14.0361
2023-04-19T01:57:37.094Z,14.6419
2023-04-19T01:58:45.277Z,14.2944
2023-04-19T01:59:53.404Z,14.5244
2023-04-19T02:01:01.471Z,14.3206
2023-04-19T02:02:09.478Z,14.9847
2023-04-19T02:03:17.753Z,13.5539
2023-04-19T02:04:25.624Z,14.2983
2023-04-19T02:05:33.890Z,14.5771
2023-04-19T02:06:41.808Z,14.1311
2023-04-19T02:07:49.653Z,14.3235
2023-04-19T02:08:57.857Z,15.0333
2023-04-19T02:10:05.954Z,14.4587
2023-04-19T02:11:14.007Z,14.7837
2023-04-19T02:12:21.934Z,14.7227
2023-04-19T02:13:30.093Z,14.8877
2023-04-19T02:14:38.174Z,14.9989
2023-04-19T02:15:46.286Z,14.9687
2023-04-19T02:16:54.399Z,14.9368
2023-04-19T02:18:02.491Z,14.6416
2023-04-19T02:19:10.299Z,14.8296
2023-04-19T02:20:18.515Z,14.7140
2023-04-19T02:21:26.826Z,14.5964
2023-04-19T02:22:34.765Z,14.6954
2023-04-19T02:23:42.609Z,14.8167
2023-04-19T02:24:50.845Z,15.2402
2023-04-19T02:25:58.690Z,15.1905
2023-04-19T02:27:06.966Z,14.9204
2023-04-19T02:28:15.125Z,14.2989
2023-04-19T02:29:22.941Z,13.9865
2023-04-19T02:30:31.094Z,14.5715
2023-04-19T02:31:39.086Z,15.0840
2023-04-19T02:32:47.411Z,14.7573
2023-04-19T02:33:55.323Z,14.1222
2023-04-19T02:35:03.458Z,14.1247
2023-04-19T02:36:11.464Z,14.6278
2023-04-19T02:37:19.589Z,15.6676
2023-04-19T02:38:27.559Z,14.8708
2023-04-19T02:39:35.641Z,15.1100
2023-04-19T02:40:43.769Z,13.6232
2023-04-19T02:41:51.690Z,14.5003
2023-04-19T02:42:59.865Z,14.9210
2023-04-19T02:44:07.885Z,14.6416
2023-04-19T02:45:15.954Z,15.0674
2023-04-19T02:46:24.215Z,14.7891
2023-04-19T02:47:32.132Z,14.9169
2023-04-19T02:48:40.177Z,14.4792
2023-04-19T02:49:48.234Z,14.4299
2023-04-19T02:50:56.453Z,14.2794
2023-04-19T02:52:04.587Z,14.5656
2023-04-19T02:53:12.465Z,14.5490
2023-04-19T02:54:20.561Z,13.9455
2023-04-19T02:55:28.600Z,14.4031
2023-04-19T02:56:36.627Z,14.4448
2023-04-19T02:57:44.780Z,14.8745
2023-04-19T02:58:52.744Z,15.1612
2023-04-19T03:00:00.926Z,13.8538
2023-04-19T03:01:08.776Z,13.7662
2023-04-19T03:02:16.985Z,14.9404
2023-04-19T03:03:24.957Z,13.9431
2023-04-19T03:04:33.141Z,13.2376
2023-04-19T03:05:41.305Z,13.4865
2023-04-19T03:06:49.083Z,13.7838
2023-04-19T03:07:57.453Z,13.5782
2023-04-19T03:09:05.249Z,14.2941
2023-04-19T03:10:13.404Z,13.6814
2023-04-19T03:11:21.460Z,13.9390
2023-04-19T03:12:29.480Z,13.9335
2023-04-19T03:13:37.582Z,14.0355
2023-04-19T03:14:45.698Z,12.9559
2023-04-19T03:15:53.772Z,13.5532
2023-04-19T03:17:01.881Z,13.8394
2023-04-19T03:18:09.832Z,13.5158
2023-04-19T03:19:17.961Z,13.1506
2023-04-19T03:20:25.908Z,14.1455
2023-04-19T03:21:34.090Z,13.7776
2023-04-19T03:22:42.133Z,13.7248
2023-04-19T03:23:50.175Z,13.8191
2023-04-19T03:24:58.220Z,13.7663
2023-04-19T03:26:06.313Z,13.6256
2023-04-19T03:27:14.375Z,13.8117
2023-04-19T03:28:22.434Z,13.3243
2023-04-19T03:29:30.450Z,13.5578
2023-04-19T03:30:38.461Z,13.2053
2023-04-19T03:31:46.581Z,13.7719
2023-04-19T03:32:54.760Z,13.8161
2023-04-19T03:34:02.717Z,14.4874
2023-04-19T03:35:10.810Z,13.7950
2023-04-19T03:36:18.941Z,13.9497
2023-04-19T03:37:27.072Z,13.1722
2023-04-19T03:38:34.862Z,13.6086
2023-04-19T03:39:43.099Z,14.3538
2023-04-19T03:40:51.247Z,14.0676
2023-04-19T03:41:59.232Z,13.7578
2023-04-19T03:43:07.261Z,13.9618
2023-04-19T03:44:15.453Z,13.6897
2023-04-19T03:45:23.389Z,14.3776
2023-04-19T03:46:31.555Z,14.3810
2023-04-19T03:47:39.708Z,13.7594
2023-04-19T03:48:47.604Z,13.7889
2023-04-19T03:49:55.530Z,13.9874
2023-04-19T03:51:03.584Z,14.0122
2023-04-19T03:52:12.186Z,14.3984
2023-04-19T03:53:19.830Z,14.9048
2023-04-19T03:54:27.896Z,15.1307
2023-04-19T03:55:36.006Z,15.0485
2023-04-19T03:56:44.033Z,14.7890
2023-04-19T03:57:52.118Z,15.2257
2023-04-19T03:59:00.389Z,14.8291
2023-04-19T04:00:08.147Z,14.3116
2023-04-19T04:01:16.386Z,14.4045
2023-04-19T04:02:24.544Z,14.1541
2023-04-19T04:03:32.633Z,14.2498
2023-04-19T04:04:40.666Z,14.9721
2023-04-19T04:05:48.539Z,14.0936
2023-04-19T04:06:56.657Z,14.3457
2023-04-19T04:08:04.734Z,14.1761
2023-04-19T04:09:12.734Z,14.1547
2023-04-19T04:10:20.830Z,15.0101
2023-04-19T04:11:28.964Z,14.2020
2023-04-19T04:12:36.966Z,13.9635
2023-04-19T04:13:45.016Z,13.5697
2023-04-19T04:14:53.178Z,14.0331
2023-04-19T04:16:01.180Z,13.5071
2023-04-19T04:17:09.320Z,14.1989
2023-04-19T04:18:17.286Z,14.9845
2023-04-19T04:19:25.400Z,13.4762
2023-04-19T04:20:33.368Z,14.0398
2023-04-19T04:21:41.477Z,14.7996
2023-04-19T04:22:49.487Z,14.4100
2023-04-19T04:23:57.592Z,14.3536
2023-04-19T04:25:05.784Z,14.0205
2023-04-19T04:26:13.869Z,14.4860
2023-04-19T04:27:21.734Z,14.8321
2023-04-19T04:28:29.906Z,14.4966
2023-04-19T04:29:37.923Z,15.1497
2023-04-19T04:30:46.020Z,14.2407
2023-04-19T04:31:54.108Z,13.8244
2023-04-19T04:33:02.122Z,14.6078
2023-04-19T04:34:10.142Z,15.2789
2023-04-19T04:35:18.231Z,13.9004
2023-04-19T04:36:26.378Z,14.7437
2023-04-19T04:37:34.451Z,15.5817
2023-04-19T04:38:42.428Z,14.4150
2023-04-19T04:39:50.514Z,14.3608
2023-04-19T04:40:58.414Z,14.0709
2023-04-19T04:42:06.575Z,14.5543
2023-04-19T04:43:14.669Z,14.3097
2023-04-19T04:44:22.702Z,15.2957
2023-04-19T04:45:30.892Z,15.0412
2023-04-19T04:46:38.801Z,15.3433
2023-04-19T04:47:46.904Z,14.7113
2023-04-19T04:48:55.031Z,15.1805
2023-04-19T04:50:03.001Z,14.6859
2023-04-19T04:51:11.100Z,14.4971
2023-04-19T04:52:19.235Z,14.4741
2023-04-19T04:53:27.198Z,15.4065
2023-04-19T04:54:35.398Z,15.2028
2023-04-19T04:55:43.375Z,14.7927
2023-04-19T04:56:51.366Z,14.3535
2023-04-19T04:57:59.488Z,14.8595
2023-04-19T04:59:07.590Z,14.3191
2023-04-19T05:00:15.554Z,14.1683
2023-04-19T05:01:23.660Z,14.4861
2023-04-19T05:02:31.740Z,14.8925
2023-04-19T05:03:39.821Z,14.2686
2023-04-19T05:04:47.790Z,14.3512
2023-04-19T05:05:55.968Z,14.4671
2023-04-19T05:07:04.056Z,13.8434
2023-04-19T05:08:12.057Z,14.1240
2023-04-19T05:09:20.075Z,14.6352
2023-04-19T05:10:28.120Z,14.5301
2023-04-19T05:11:36.236Z,14.5258
2023-04-19T05:12:44.229Z,13.6411
2023-04-19T05:13:52.455Z,14.0806
2023-04-19T05:15:00.430Z,13.8589
2023-04-19T05:16:08.404Z,14.4488
2023-04-19T05:17:16.529Z,14.2337
2023-04-19T05:18:24.695Z,14.0109
2023-04-19T05:19:32.623Z,14.6947
2023-04-19T05:20:40.724Z,14.2854
2023-04-19T05:21:48.849Z,13.9670
2023-04-19T05:22:56.893Z,14.5606
2023-04-19T05:24:04.887Z,14.9501
2023-04-19T05:25:12.976Z,14.4029
2023-04-19T05:26:21.037Z,13.8749
2023-04-19T05:27:29.100Z,13.9296
2023-04-19T05:28:37.219Z,14.3333
2023-04-19T05:29:45.361Z,14.1091
2023-04-19T05:30:53.266Z,14.1382
2023-04-19T05:32:01.463Z,14.1211
2023-04-19T05:33:09.593Z,14.3837
2023-04-19T05:34:19.597Z,14.0403
2023-04-19T05:35:30.405Z,13.8837
2023-04-19T05:36:38.476Z,14.2767
2023-04-19T05:37:46.454Z,14.1877
2023-04-19T05:38:54.605Z,14.4206
2023-04-19T05:40:02.671Z,14.4962
2023-04-19T05:41:10.779Z,14.8305
2023-04-19T05:42:18.965Z,14.1892
2023-04-19T05:43:26.817Z,14.9540
2023-04-19T05:44:34.850Z,14.7846
2023-04-19T05:45:43.050Z,15.1560
2023-04-19T05:46:51.033Z,13.8581
2023-04-19T05:47:59.106Z,14.6200
2023-04-19T05:49:07.249Z,14.1904
2023-04-19T05:50:15.195Z,14.7746
2023-04-19T05:51:23.434Z,14.6451
2023-04-19T05:52:31.373Z,13.9426
2023-04-19T05:53:39.476Z,13.9136
2023-04-19T05:54:47.482Z,14.4227
2023-04-19T05:55:55.557Z,15.1602
2023-04-19T05:57:03.684Z,15.0856
2023-04-19T05:58:11.733Z,14.3812
2023-04-19T05:59:19.729Z,14.7249
2023-04-19T06:00:27.734Z,14.1482
2023-04-19T06:01:35.895Z,14.1814
2023-04-19T06:02:44.267Z,14.1315
2023-04-19T06:03:52.385Z,14.4999
2023-04-19T06:05:02.582Z,14.7031
2023-04-19T06:06:13.241Z,14.4762
2023-04-19T06:07:31.909Z,15.5503
2023-04-19T06:08:33.993Z,15.5760
2023-04-19T06:09:42.110Z,14.9601
2023-04-19T06:10:55.913Z,14.5517
2023-04-19T06:12:03.228Z,14.6621
2023-04-19T06:13:11.149Z,13.9173
2023-04-19T06:14:19.746Z,14.1336
2023-04-19T06:15:27.281Z,14.6176
2023-04-19T06:16:35.447Z,14.8051
2023-04-19T06:17:43.473Z,14.8641
2023-04-19T06:18:51.541Z,14.3048
2023-04-19T06:19:59.727Z,14.2728
2023-04-19T06:21:07.623Z,14.3191
2023-04-19T06:22:15.698Z,14.4885
2023-04-19T06:23:23.988Z,13.9592
2023-04-19T06:24:32.821Z,13.5379
2023-04-19T06:25:39.866Z,13.8307
2023-04-19T06:26:47.962Z,13.3089
2023-04-19T06:27:56.004Z,13.4485
2023-04-19T06:29:04.056Z,13.1780
2023-04-19T06:30:12.617Z,13.3394
2023-04-19T06:31:20.216Z,13.8627
2023-04-19T06:32:28.332Z,13.5543
2023-04-19T06:33:36.340Z,13.2960
2023-04-19T06:34:44.347Z,12.9806
2023-04-19T06:35:52.466Z,12.9515
2023-04-19T06:37:00.597Z,13.0451
2023-04-19T06:38:08.579Z,12.9324
2023-04-19T06:39:16.936Z,13.2710
2023-04-19T06:40:24.642Z,13.1079
2023-04-19T06:41:32.846Z,12.6795
2023-04-19T06:42:40.914Z,12.9599
2023-04-19T06:43:48.918Z,11.8217
2023-04-19T06:44:56.982Z,12.1202
2023-04-19T06:46:05.092Z,12.3633
2023-04-19T06:47:13.102Z,12.6401
2023-04-19T06:48:21.224Z,11.7947
2023-04-19T06:49:29.247Z,12.3583
2023-04-19T06:50:37.424Z,12.3264
2023-04-19T06:51:45.405Z,12.1591
2023-04-19T06:52:53.467Z,12.5546
2023-04-19T06:54:01.501Z,12.3181
2023-04-19T06:55:09.650Z,12.5591
2023-04-19T06:56:17.616Z,11.6518
2023-04-19T06:57:25.669Z,12.4266
2023-04-19T06:58:34.929Z,12.9685
2023-04-19T06:59:41.821Z,12.6483
2023-04-19T07:00:49.897Z,12.7556
2023-04-19T07:01:57.931Z,12.7914
2023-04-19T07:03:06.160Z,12.7553
2023-04-19T07:04:14.332Z,13.2082
2023-04-19T07:05:22.285Z,13.2026
2023-04-19T07:06:30.126Z,12.9257
2023-04-19T07:07:38.340Z,13.1012
2023-04-19T07:08:50.222Z,13.5307
2023-04-19T07:09:59.264Z,13.4816
2023-04-19T07:11:07.328Z,13.8272
2023-04-19T07:12:15.333Z,13.5413
2023-04-19T07:13:23.440Z,13.0813
2023-04-19T07:14:31.481Z,12.9941
2023-04-19T07:15:39.805Z,13.2039
2023-04-19T07:16:47.612Z,13.0104
2023-04-19T07:17:55.773Z,13.0168
2023-04-19T07:19:03.787Z,13.3292
2023-04-19T07:20:11.745Z,13.1087
2023-04-19T07:21:19.886Z,12.6739
2023-04-19T07:22:27.995Z,12.6546
2023-04-19T07:23:36.040Z,12.9931
2023-04-19T07:24:44.084Z,13.7153
2023-04-19T07:25:52.134Z,13.2756
2023-04-19T07:27:00.250Z,12.9199
2023-04-19T07:28:08.253Z,12.9275
2023-04-19T07:29:16.250Z,13.9009
2023-04-19T07:30:24.493Z,13.5044
2023-04-19T07:31:32.484Z,13.4891
2023-04-19T07:32:40.797Z,12.6373
2023-04-19T07:33:48.604Z,13.0377
2023-04-19T07:34:56.658Z,13.3681
2023-04-19T07:36:04.808Z,13.4408
2023-04-19T07:37:12.793Z,13.9175
2023-04-19T07:38:20.755Z,13.2499
2023-04-19T07:39:28.855Z,12.6942
2023-04-19T07:40:36.980Z,12.7731
2023-04-19T07:41:45.071Z,13.6634
2023-04-19T07:42:53.126Z,14.0297
2023-04-19T07:44:01.214Z,13.0677
2023-04-19T07:45:09.388Z,13.1975
2023-04-19T07:46:17.380Z,13.1502
2023-04-19T07:47:25.428Z,13.4850
2023-04-19T07:48:33.490Z,13.3569
2023-04-19T07:49:41.469Z,13.8644
2023-04-19T07:50:49.750Z,13.1889
2023-04-19T07:51:57.696Z,13.2006
2023-04-19T07:53:05.744Z,13.7549
2023-04-19T07:54:14.081Z,13.6147
2023-04-19T07:55:22.139Z,13.5840
2023-04-19T07:56:29.887Z,16.5022
2023-04-19T07:57:37.985Z,13.6197
2023-04-19T07:58:50.874Z,13.6098
2023-04-19T07:59:59.033Z,13.6189
2023-04-19T08:01:06.940Z,12.8774
2023-04-19T08:02:15.178Z,13.2585
2023-04-19T08:03:23.372Z,13.3877
2023-04-19T08:04:31.447Z,13.1508
2023-04-19T08:05:39.285Z,12.5634
2023-04-19T08:06:47.634Z,12.6488
2023-04-19T08:07:55.362Z,12.9323
2023-04-19T08:09:03.467Z,13.0614
2023-04-19T08:10:11.582Z,13.2572
2023-04-19T08:11:19.584Z,12.7772
2023-04-19T08:12:37.325Z,13.1281
2023-04-19T08:13:40.572Z,12.8220
2023-04-19T08:15:01.494Z,13.2925
2023-04-19T08:17:25.604Z,12.2727
2023-04-19T08:18:27.431Z,13.3103
2023-04-19T08:19:35.472Z,12.8036
2023-04-19T08:20:43.643Z,12.7545
2023-04-19T08:21:51.552Z,12.2237
2023-04-19T08:23:04.613Z,13.2266
2023-04-19T08:24:12.579Z,12.8479
2023-04-19T08:25:20.573Z,12.0658
2023-04-19T08:26:28.766Z,12.0637
2023-04-19T08:27:36.799Z,12.4926
2023-04-19T08:28:44.787Z,11.9282
2023-04-19T08:29:52.883Z,12.3106
2023-04-19T08:31:01.110Z,11.9587
2023-04-19T08:32:09.106Z,12.0264
2023-04-19T08:33:17.284Z,12.9478
2023-04-19T08:34:25.063Z,12.9483
2023-04-19T08:35:33.225Z,12.1260
2023-04-19T08:36:48.386Z,12.7985
2023-04-19T08:37:54.296Z,12.4266
2023-04-19T08:39:06.539Z,11.8315
2023-04-19T08:40:15.302Z,11.9271
2023-04-19T08:41:23.361Z,12.6599
2023-04-19T08:42:36.533Z,12.0661
2023-04-19T08:43:44.225Z,12.0425
2023-04-19T08:46:05.284Z,11.9063
2023-04-19T08:47:20.283Z,12.0503
2023-04-19T08:48:26.253Z,11.9628
2023-04-19T08:49:34.200Z,12.3456
2023-04-19T08:51:00.666Z,12.4121
2023-04-19T08:51:55.258Z,12.1537
2023-04-19T08:53:16.447Z,11.8215
2023-04-19T08:54:16.239Z,12.0897
2023-04-19T08:55:24.282Z,11.4476
2023-04-19T08:56:35.726Z,11.4034
2023-04-19T08:57:45.188Z,12.0009
2023-04-19T08:59:04.472Z,11.7212
2023-04-19T09:00:06.221Z,11.3366
2023-04-19T09:01:22.845Z,10.9231
2023-04-19T09:02:27.433Z,11.2510
2023-04-19T09:03:44.230Z,11.4105
2023-04-19T09:04:48.682Z,11.9873
2023-04-19T09:05:56.593Z,11.3273
2023-04-19T09:07:04.347Z,11.7148
2023-04-19T09:08:14.010Z,11.7576
2023-04-19T09:10:33.614Z,11.9659
2023-04-19T09:11:41.442Z,11.3216
2023-04-19T09:12:49.651Z,11.5670
2023-04-19T09:13:57.501Z,11.6576
2023-04-19T09:15:05.718Z,11.7386
2023-04-19T09:16:13.846Z,11.1125
2023-04-19T09:17:21.891Z,11.9667
2023-04-19T09:18:31.449Z,11.2971
2023-04-19T09:19:42.785Z,11.2780
2023-04-19T09:20:51.054Z,11.5963
2023-04-19T09:21:58.911Z,11.8497
2023-04-19T09:23:06.968Z,11.5720
2023-04-19T09:24:15.034Z,11.6166
2023-04-19T09:25:43.736Z,11.7744
2023-04-19T09:26:36.084Z,11.7898
2023-04-19T09:27:44.021Z,12.0468
2023-04-19T09:28:52.429Z,12.3568
2023-04-19T09:30:00.394Z,12.8590
2023-04-19T09:31:26.231Z,12.0782
2023-04-19T09:32:21.358Z,12.1154
2023-04-19T09:33:29.417Z,10.9195
2023-04-19T09:34:37.378Z,11.1935
2023-04-19T09:35:45.414Z,11.4581
2023-04-19T09:37:01.107Z,11.8343
2023-04-19T09:38:07.064Z,11.5734
2023-04-19T09:39:14.746Z,11.5636
2023-04-19T09:40:22.453Z,11.5287
2023-04-19T09:41:30.563Z,10.8941
2023-04-19T09:42:58.777Z,11.5474
2023-04-19T09:46:17.600Z,10.9367
2023-04-19T09:47:25.570Z,11.4755
2023-04-19T09:48:33.468Z,11.8110
2023-04-19T09:49:48.827Z,11.8461
2023-04-19T09:50:59.611Z,11.8480
2023-04-19T09:52:07.557Z,11.5210
2023-04-19T09:53:15.389Z,11.6602
2023-04-19T09:54:23.557Z,11.5552
2023-04-19T09:55:35.906Z,10.9210
2023-04-19T09:56:44.558Z,11.1554
2023-04-19T09:57:52.555Z,10.8975
2023-04-19T09:59:20.942Z,11.4076
2023-04-19T10:00:13.560Z,11.2003
2023-04-19T10:01:21.640Z,11.4610
2023-04-19T10:02:29.865Z,11.2225
2023-04-19T10:03:38.135Z,10.6023
2023-04-19T10:05:06.670Z,11.0021
2023-04-19T10:06:02.042Z,11.6198
2023-04-19T10:08:24.664Z,11.2954
2023-04-19T10:09:35.625Z,11.2972
2023-04-19T10:10:45.721Z,10.8372
2023-04-19T10:11:56.189Z,10.9223
2023-04-19T10:13:16.086Z,11.0247
2023-04-19T10:14:19.576Z,11.3444
2023-04-19T10:15:33.762Z,10.5256
2023-04-19T10:16:40.560Z,10.7319
2023-04-19T10:17:48.643Z,10.6906
2023-04-19T10:18:56.695Z,10.9583
2023-04-19T10:20:04.732Z,11.2525
2023-04-19T10:21:12.767Z,11.2284
2023-04-19T10:22:20.986Z,11.6026
2023-04-19T10:23:29.031Z,11.1702
2023-04-19T10:24:37.079Z,11.4465
2023-04-19T10:25:45.045Z,11.0087
2023-04-19T10:26:53.175Z,11.4105
2023-04-19T10:28:01.164Z,10.2420
2023-04-19T10:29:09.199Z,11.4629
2023-04-19T10:30:17.301Z,11.5890
2023-04-19T10:31:25.866Z,11.2319
2023-04-19T10:32:33.531Z,10.7276
2023-04-19T10:33:41.510Z,10.9212
2023-04-19T10:34:49.567Z,11.3609
2023-04-19T10:35:57.640Z,10.8693
2023-04-19T10:37:05.675Z,10.8949
2023-04-19T10:38:13.811Z,11.2656
2023-04-19T10:39:21.814Z,10.9857
2023-04-19T10:40:30.014Z,10.9581
2023-04-19T10:41:37.894Z,11.4385
2023-04-19T10:42:45.981Z,11.8305
2023-04-19T10:43:54.028Z,10.7991
2023-04-19T10:45:02.101Z,11.5745
2023-04-19T10:46:10.131Z,11.6180
2023-04-19T10:47:18.183Z,11.0416
2023-04-19T10:48:26.312Z,11.2357
2023-04-19T10:49:34.493Z,10.8537
2023-04-19T10:50:42.337Z,11.1923
2023-04-19T10:51:50.444Z,11.1178
2023-04-19T10:52:58.443Z,10.6777
2023-04-19T10:54:06.577Z,11.1422
2023-04-19T10:55:14.649Z,10.8310
2023-04-19T10:56:22.738Z,11.1571
2023-04-19T10:57:30.776Z,10.9283
2023-04-19T10:58:38.758Z,10.8723
2023-04-19T10:59:46.999Z,10.9587
2023-04-19T11:00:54.911Z,10.9658
2023-04-19T11:02:03.093Z,10.1915
2023-04-19T11:03:11.084Z,10.0866
2023-04-19T11:04:19.339Z,10.9973
2023-04-19T11:05:27.155Z,10.9123
2023-04-19T11:06:35.224Z,10.0279
2023-04-19T11:07:43.199Z,10.8124
2023-04-19T11:08:51.364Z,10.6180
2023-04-19T11:09:59.455Z,10.9093
2023-04-19T11:11:07.462Z,11.1681
2023-04-19T11:12:15.571Z,11.5565
2023-04-19T11:13:23.521Z,10.9819
2023-04-19T11:14:31.698Z,11.2971
2023-04-19T11:15:39.755Z,11.6117
2023-04-19T11:16:47.806Z,11.0199
2023-04-19T11:18:11.381Z,11.1889
2023-04-19T11:19:08.834Z,12.0128
2023-04-19T11:20:16.789Z,11.5502
2023-04-19T11:21:24.879Z,11.2873
2023-04-19T11:22:33.010Z,11.4196
2023-04-19T11:23:40.951Z,11.1884
2023-04-19T11:24:49.033Z,10.8212
2023-04-19T11:25:57.152Z,10.8730
2023-04-19T11:27:05.290Z,11.2103
2023-04-19T11:28:13.131Z,11.1138
2023-04-19T11:29:21.380Z,11.6927
2023-04-19T11:30:29.332Z,11.6087
2023-04-19T11:31:37.548Z,10.6839
2023-04-19T11:32:45.547Z,11.0031
2023-04-19T11:33:53.569Z,10.8249
2023-04-19T11:35:01.612Z,10.7477
2023-04-19T11:36:09.776Z,10.8165
2023-04-19T11:37:17.672Z,10.9788
2023-04-19T11:38:25.672Z,11.2421
2023-04-19T11:39:33.728Z,11.2903
2023-04-19T11:40:41.844Z,11.2575
2023-04-19T11:41:49.946Z,10.2884
2023-04-19T11:42:58.010Z,10.8936
2023-04-19T11:44:06.158Z,11.0068
2023-04-19T11:45:26.111Z,11.2310
2023-04-19T11:46:27.164Z,11.6403
2023-04-19T11:47:35.106Z,11.1805
2023-04-19T11:48:43.206Z,11.6991
2023-04-19T11:49:51.170Z,11.0407
2023-04-19T11:50:59.236Z,10.3055
2023-04-19T11:52:07.417Z,10.0867
2023-04-19T11:53:15.417Z,10.8437
2023-04-19T11:54:23.377Z,10.8071
2023-04-19T11:55:31.546Z,10.5436
2023-04-19T11:56:39.574Z,10.6527
2023-04-19T11:57:47.661Z,10.6056
2023-04-19T11:58:55.679Z,10.2915
2023-04-19T12:00:03.659Z,10.8332
2023-04-19T12:01:11.811Z,10.8765
2023-04-19T12:02:19.889Z,10.6220
2023-04-19T12:03:28.313Z,11.3142
2023-04-19T12:04:36.250Z,11.3822
2023-04-19T12:05:44.072Z,10.9363
2023-04-19T12:06:52.096Z,11.5453
2023-04-19T12:08:00.181Z,11.5744
2023-04-19T12:09:08.254Z,11.3340
2023-04-19T12:10:16.312Z,11.4848
2023-04-19T12:11:24.360Z,10.9045
2023-04-19T12:12:32.401Z,11.0963
2023-04-19T12:13:40.528Z,10.9120
2023-04-19T12:14:48.661Z,10.6584
2023-04-19T12:15:56.823Z,11.1980
2023-04-19T12:17:04.726Z,11.0076
2023-04-19T12:18:12.892Z,10.5481
2023-04-19T12:19:20.862Z,10.6849
2023-04-19T12:20:28.834Z,10.1262
2023-04-19T12:21:36.817Z,10.7662
2023-04-19T12:22:44.977Z,10.5585
2023-04-19T12:23:53.291Z,10.2123
2023-04-19T12:25:01.097Z,10.3203
2023-04-19T12:26:09.151Z,10.2920
2023-04-19T12:27:17.233Z,10.3987
2023-04-19T12:28:25.376Z,10.8020
2023-04-19T12:29:33.295Z,11.5658
2023-04-19T12:30:41.360Z,11.3668
2023-04-19T12:31:49.492Z,11.3907
2023-04-19T12:32:57.500Z,10.9215
2023-04-19T12:34:05.681Z,11.0235
2023-04-19T12:35:13.626Z,11.1028
2023-04-19T12:36:21.721Z,11.6642
2023-04-19T12:37:29.652Z,11.3592
2023-04-19T12:38:37.785Z,11.8255
2023-04-19T12:39:45.869Z,11.5124
2023-04-19T12:40:54.030Z,10.7684
2023-04-19T12:42:02.030Z,11.4515
2023-04-19T12:43:09.972Z,12.9276
2023-04-19T12:44:18.079Z,13.0380
2023-04-19T12:45:26.040Z,13.2378
2023-04-19T12:46:34.286Z,13.8673
2023-04-19T12:47:42.227Z,13.8816
2023-04-19T12:48:50.234Z,14.1202
2023-04-19T12:49:58.419Z,14.3353
2023-04-19T12:51:06.515Z,14.3566
2023-04-19T12:52:14.611Z,13.9220
2023-04-19T12:53:22.670Z,13.9211
2023-04-19T12:54:30.582Z,14.1508
2023-04-19T12:55:38.656Z,14.3249
2023-04-19T12:56:46.792Z,14.9079
2023-04-19T12:57:54.848Z,14.3353
2023-04-19T12:59:02.793Z,15.1349
2023-04-19T13:00:10.854Z,15.2198
2023-04-19T13:01:19.019Z,14.6619
2023-04-19T13:02:27.201Z,14.1611
2023-04-19T13:03:35.231Z,14.6507
2023-04-19T13:04:43.408Z,14.1477
2023-04-19T13:05:51.196Z,13.7883
2023-04-19T13:06:59.523Z,14.0171
2023-04-19T13:08:07.360Z,14.1954
2023-04-19T13:09:15.462Z,14.1930
2023-04-19T13:10:23.456Z,13.8177
2023-04-19T13:11:31.550Z,13.7161
2023-04-19T13:12:39.602Z,13.6787
2023-04-19T13:13:47.550Z,14.4432
2023-04-19T13:14:55.612Z,14.7649
2023-04-19T13:16:03.828Z,14.7948
2023-04-19T13:17:11.781Z,15.2089
2023-04-19T13:18:19.923Z,15.8398
2023-04-19T13:19:28.043Z,14.7694
2023-04-19T13:20:35.908Z,14.8356
2023-04-19T13:21:44.103Z,14.7529
2023-04-19T13:22:52.128Z,14.1387
2023-04-19T13:24:00.192Z,15.0222
2023-04-19T13:25:08.162Z,15.3004
2023-04-19T13:26:16.304Z,14.7553
2023-04-19T13:27:24.334Z,15.4211
2023-04-19T13:28:32.517Z,15.0050
2023-04-19T13:29:40.468Z,15.0664
2023-04-19T13:30:48.530Z,15.0173
2023-04-19T13:31:56.585Z,14.3041
2023-04-19T13:33:06.142Z,14.0781
2023-04-19T13:34:17.825Z,14.3580
2023-04-19T13:35:25.647Z,14.1579
2023-04-19T13:36:33.821Z,14.2662
2023-04-19T13:37:41.775Z,14.7004
2023-04-19T13:38:49.822Z,13.8435
2023-04-19T13:40:10.714Z,13.7210
2023-04-19T13:41:10.727Z,13.8823
2023-04-19T13:42:18.940Z,13.9779
2023-04-19T13:43:26.899Z,13.7151
2023-04-19T13:44:34.950Z,13.4315
2023-04-19T13:45:42.949Z,13.1638
2023-04-19T13:46:51.121Z,12.2466
2023-04-19T13:47:59.257Z,12.7794
2023-04-19T13:49:07.217Z,13.1941
2023-04-19T13:50:15.269Z,13.2599
2023-04-19T13:51:23.258Z,13.5717
2023-04-19T13:52:31.406Z,13.4500
2023-04-19T13:53:39.491Z,12.8621